createdAt,value
2022-10-17T00:02:57.588Z,5.20
2022-10-17T00:07:59.080Z,4.60
2022-10-17T00:13:00.637Z,4.13
2022-10-17T00:18:02.334Z,3.92
2022-10-17T00:23:03.915Z,5.90
2022-10-17T00:28:05.555Z,3.92
2022-10-17T00:33:08.523Z,3.47
2022-10-17T00:38:10.030Z,4.40
2022-10-17T00:43:17.816Z,7.05
2022-10-17T00:48:23.201Z,6.22
2022-10-17T00:53:25.061Z,3.53
2022-10-17T00:58:26.643Z,3.80
2022-10-17T01:03:28.244Z,3.47
2022-10-17T01:08:30.238Z,3.70
2022-10-17T01:13:53.517Z,4.35
2022-10-17T01:19:20.838Z,5.50
2022-10-17T01:24:45.862Z,5.03
2022-10-17T01:29:57.469Z,7.57
2022-10-17T01:35:10.313Z,12.02
2022-10-17T01:40:27.947Z,13.68
2022-10-17T01:45:54.865Z,16.42
2022-10-17T01:51:11.408Z,18.42
2022-10-17T01:56:16.789Z,17.67
2022-10-17T02:01:21.332Z,18.58
2022-10-17T02:06:22.968Z,18.73
2022-10-17T02:11:26.983Z,20.02
2022-10-17T02:16:35.019Z,21.40
2022-10-17T02:21:56.376Z,21.17
2022-10-17T02:27:11.871Z,22.33
2022-10-17T02:32:50.450Z,21.92
2022-10-17T02:37:56.080Z,22.35
2022-10-17T02:42:59.969Z,22.60
2022-10-17T02:48:19.669Z,21.63
2022-10-17T02:53:34.465Z,20.33
2022-10-17T02:58:37.620Z,20.25
2022-10-17T03:03:39.211Z,19.65
2022-10-17T03:08:40.869Z,21.70
2022-10-17T03:13:42.484Z,21.73
2022-10-17T03:18:47.933Z,20.50
2022-10-17T03:23:51.829Z,20.77
2022-10-17T03:28:56.267Z,18.15
2022-10-17T03:33:58.530Z,21.15
2022-10-17T03:39:00.201Z,24.85
2022-10-17T03:44:03.080Z,26.70
2022-10-17T03:49:05.810Z,29.05
2022-10-17T03:54:07.961Z,29.30
2022-10-17T03:59:13.269Z,28.95
2022-10-17T04:04:15.372Z,27.73
2022-10-17T04:09:17.085Z,28.90
2022-10-17T04:14:27.597Z,30.70
2022-10-17T04:19:29.610Z,28.83
2022-10-17T04:24:31.502Z,33.65
2022-10-17T04:29:53.299Z,34.53
2022-10-17T04:34:58.330Z,34.45
2022-10-17T04:40:02.202Z,36.03
2022-10-17T04:45:07.494Z,38.65
2022-10-17T04:50:11.054Z,43.60
2022-10-17T04:55:14.964Z,55.65
2022-10-17T05:00:17.683Z,50.10
2022-10-17T05:05:48.411Z,49.05
2022-10-17T05:10:50.224Z,47.63
2022-10-17T05:15:52.294Z,49.80
2022-10-17T05:20:54.852Z,48.50
2022-10-17T05:25:57.249Z,43.10
2022-10-17T05:31:03.615Z,49.75
2022-10-17T05:36:07.288Z,52.33
2022-10-17T05:41:10.681Z,47.05
2022-10-17T05:46:13.534Z,51.95
2022-10-17T05:51:15.579Z,45.70
2022-10-17T05:56:20.500Z,47.53
2022-10-17T06:01:24.514Z,52.72
2022-10-17T06:06:26.626Z,49.60
2022-10-17T06:11:29.031Z,56.67
2022-10-17T06:16:31.652Z,54.67
2022-10-17T06:21:37.014Z,48.83
2022-10-17T06:26:44.411Z,51.63
2022-10-17T06:31:49.231Z,45.92
2022-10-17T06:36:51.598Z,50.85
2022-10-17T06:41:54.506Z,44.80
2022-10-17T06:47:07.441Z,47.13
2022-10-17T06:52:10.599Z,42.80
2022-10-17T06:57:24.507Z,42.42
2022-10-17T07:02:55.278Z,40.20
2022-10-17T07:07:56.937Z,40.15
2022-10-17T07:12:58.500Z,44.33
2022-10-17T07:18:00.489Z,40.50
2022-10-17T07:23:02.986Z,39.63
2022-10-17T07:28:05.437Z,41.80
2022-10-17T07:33:07.436Z,44.35
2022-10-17T07:38:09.709Z,44.05
2022-10-17T07:43:12.041Z,39.95
2022-10-17T07:48:13.936Z,37.30
2022-10-17T07:53:15.592Z,37.92
2022-10-17T07:58:17.396Z,37.15
2022-10-17T08:03:18.978Z,34.65
2022-10-17T08:08:20.680Z,35.05
2022-10-17T08:13:23.262Z,33.95
2022-10-17T08:18:24.844Z,33.45
2022-10-17T08:23:26.703Z,35.20
2022-10-17T08:28:28.819Z,32.97
2022-10-17T08:33:30.424Z,32.47
2022-10-17T08:38:35.558Z,32.25
2022-10-17T08:43:43.982Z,31.27
2022-10-17T08:48:47.894Z,31.90
2022-10-17T08:54:03.498Z,32.22
2022-10-17T08:59:10.821Z,33.47
2022-10-17T09:04:18.307Z,29.25
2022-10-17T09:09:45.422Z,28.08
2022-10-17T09:14:57.570Z,30.23
2022-10-17T09:20:04.410Z,30.67
2022-10-17T09:25:11.923Z,28.55
2022-10-17T09:30:40.063Z,29.42
2022-10-17T09:35:42.195Z,31.95
2022-10-17T09:40:44.991Z,29.90
2022-10-17T09:46:13.935Z,31.23
2022-10-17T09:51:25.665Z,29.58
2022-10-17T09:56:27.858Z,28.88
2022-10-17T10:01:31.420Z,28.00
2022-10-17T10:06:32.929Z,28.52
2022-10-17T10:11:55.867Z,25.85
2022-10-17T10:16:57.379Z,26.85
2022-10-17T10:22:17.785Z,24.63
2022-10-17T10:27:19.939Z,25.20
2022-10-17T10:32:27.931Z,24.05
2022-10-17T10:37:38.153Z,21.83
2022-10-17T10:42:40.601Z,21.10
2022-10-17T10:47:51.623Z,21.55
2022-10-17T10:53:47.094Z,20.08
2022-10-17T10:58:58.553Z,18.25
2022-10-17T11:04:20.210Z,17.17
2022-10-17T11:09:44.304Z,17.13
2022-10-17T11:14:56.043Z,16.90
2022-10-17T11:20:09.375Z,16.58
2022-10-17T11:25:28.508Z,16.27
2022-10-17T11:30:41.329Z,16.48
2022-10-17T11:35:47.345Z,18.15
2022-10-17T11:40:54.961Z,16.13
2022-10-17T11:46:05.573Z,17.60
2022-10-17T11:56:58.416Z,16.30
2022-10-17T12:02:16.965Z,15.27
2022-10-17T12:07:34.552Z,17.42
2022-10-17T12:12:38.319Z,17.25
2022-10-17T12:17:43.996Z,16.63
2022-10-17T12:22:49.631Z,17.42
2022-10-17T12:27:51.702Z,17.98
2022-10-17T12:33:05.715Z,16.40
2022-10-17T12:38:18.281Z,16.50
2022-10-17T12:43:28.986Z,16.77
2022-10-17T12:48:59.417Z,16.33
2022-10-17T12:54:15.103Z,15.65
2022-10-17T12:59:25.850Z,14.70
2022-10-17T13:04:29.645Z,15.18
2022-10-17T13:09:33.472Z,15.63
2022-10-17T13:14:35.168Z,15.23
2022-10-17T13:19:42.905Z,13.82
2022-10-17T13:24:45.428Z,13.15
2022-10-17T13:29:47.150Z,14.88
2022-10-17T13:35:07.159Z,14.95
2022-10-17T13:45:49.070Z,14.93
2022-10-17T13:50:54.034Z,15.25
2022-10-17T13:56:32.937Z,15.68
2022-10-17T14:01:34.984Z,15.95
2022-10-17T14:06:49.714Z,15.07
2022-10-17T14:12:11.096Z,17.52
2022-10-17T14:17:15.122Z,16.90
2022-10-17T14:22:17.563Z,17.48
2022-10-17T14:27:38.320Z,17.33
2022-10-17T14:32:42.993Z,17.08
2022-10-17T14:37:48.641Z,17.88
2022-10-17T14:42:53.104Z,18.10
2022-10-17T14:48:00.808Z,20.23
2022-10-17T14:53:04.215Z,19.13
2022-10-17T14:58:28.176Z,19.58
2022-10-17T15:03:29.837Z,19.13
2022-10-17T15:08:31.593Z,20.75
2022-10-17T15:13:39.933Z,20.45
2022-10-17T15:18:43.168Z,19.77
2022-10-17T15:23:45.214Z,21.60
2022-10-17T15:28:47.854Z,23.05
2022-10-17T15:33:50.466Z,23.80
2022-10-17T15:38:55.544Z,26.90
2022-10-17T15:43:58.086Z,24.77
2022-10-17T15:49:07.515Z,24.23
2022-10-17T15:54:09.416Z,25.55
2022-10-17T15:59:15.242Z,24.13
2022-10-17T16:04:18.466Z,25.53
2022-10-17T16:09:20.171Z,27.30
2022-10-17T16:14:21.889Z,25.23
2022-10-17T16:19:23.832Z,23.25
2022-10-17T16:24:25.696Z,25.08
2022-10-17T16:29:27.608Z,26.55
2022-10-17T16:34:30.691Z,27.85
2022-10-17T16:39:32.374Z,27.08
2022-10-17T16:44:34.145Z,28.98
2022-10-17T16:49:35.771Z,27.25
2022-10-17T16:54:37.622Z,27.13
2022-10-17T16:59:39.240Z,29.83
2022-10-17T17:04:40.729Z,30.00
2022-10-17T17:09:42.321Z,31.33
2022-10-17T17:14:43.956Z,28.80
2022-10-17T17:19:45.591Z,29.40
2022-10-17T17:24:47.210Z,30.17
2022-10-17T17:29:48.883Z,29.25
2022-10-17T17:34:50.592Z,30.23
2022-10-17T17:39:52.180Z,30.77
2022-10-17T17:44:53.754Z,30.52
2022-10-17T17:49:55.381Z,30.50
2022-10-17T17:54:56.974Z,30.98
2022-10-17T17:59:58.554Z,31.27
2022-10-17T18:05:00.085Z,31.80
2022-10-17T18:10:01.692Z,34.83
2022-10-17T18:15:04.571Z,33.72
2022-10-17T18:20:06.809Z,36.40
2022-10-17T18:25:08.550Z,38.75
2022-10-17T18:30:10.455Z,34.58
2022-10-17T18:35:12.073Z,37.75
2022-10-17T18:40:13.614Z,37.08
2022-10-17T18:45:15.894Z,38.42
2022-10-17T18:50:17.512Z,39.95
2022-10-17T18:55:20.597Z,39.42
2022-10-17T19:00:22.158Z,38.28
2022-10-17T19:05:23.726Z,39.15
2022-10-17T19:10:25.806Z,38.55
2022-10-17T19:15:27.505Z,39.00
2022-10-17T19:20:29.088Z,40.03
2022-10-17T19:25:30.724Z,35.83
2022-10-17T19:30:32.327Z,37.38
2022-10-17T19:35:34.839Z,40.90
2022-10-17T19:40:40.655Z,42.63
2022-10-17T19:45:42.267Z,43.50
2022-10-17T19:50:44.382Z,40.95
2022-10-17T19:55:46.176Z,40.22
2022-10-17T20:00:54.493Z,40.42
2022-10-17T20:05:56.271Z,39.28
2022-10-17T20:11:02.424Z,40.78
2022-10-17T20:16:05.326Z,39.08
2022-10-17T20:21:10.368Z,36.70
2022-10-17T20:26:37.594Z,39.22
2022-10-17T20:31:42.754Z,37.60
2022-10-17T20:36:45.038Z,37.40
2022-10-17T20:41:47.252Z,37.90
2022-10-17T20:47:01.042Z,40.42
2022-10-17T20:52:03.974Z,37.08
2022-10-17T20:57:06.213Z,38.28
2022-10-17T21:02:11.941Z,38.67
2022-10-17T21:07:13.725Z,39.13
2022-10-17T21:12:21.834Z,39.00
2022-10-17T21:17:32.912Z,40.10
2022-10-17T21:22:34.916Z,37.90
2022-10-17T21:27:36.514Z,40.63
2022-10-17T21:32:51.138Z,36.95
2022-10-17T21:37:53.519Z,41.75
2022-10-17T21:42:55.092Z,38.70
2022-10-17T21:48:13.076Z,37.83
2022-10-17T21:53:15.142Z,43.33
2022-10-17T21:58:16.739Z,38.47
2022-10-17T22:03:18.304Z,42.40
2022-10-17T22:08:19.877Z,43.38
2022-10-17T22:13:21.417Z,52.22
2022-10-17T22:18:22.982Z,42.47
2022-10-17T22:23:25.867Z,39.08
2022-10-17T22:28:27.620Z,43.40
2022-10-17T22:33:32.409Z,46.13
2022-10-17T22:38:34.597Z,48.45
2022-10-17T22:43:36.277Z,47.03
2022-10-17T22:48:38.210Z,46.97
2022-10-17T22:53:40.058Z,44.55
2022-10-17T22:58:42.291Z,55.92
2022-10-17T23:03:44.248Z,41.97
2022-10-17T23:08:46.172Z,49.17
2022-10-17T23:13:47.805Z,53.08
2022-10-17T23:18:49.397Z,59.38
2022-10-17T23:23:50.969Z,54.50
2022-10-17T23:28:55.687Z,59.13
2022-10-17T23:33:58.443Z,55.88
2022-10-17T23:39:00.035Z,49.83
2022-10-17T23:44:01.588Z,53.72
2022-10-17T23:49:04.277Z,48.78
2022-10-17T23:54:05.849Z,53.22
2022-10-17T23:59:08.820Z,47.45
